»·PEaware :: N362LP KLAX-KSAN

N362LP :: KLAX-KSAN

FLIGHT INFORMATION

Flight Status: Arrived
Operator: Privately registered:
United States
More flights under this callsign
Pilot: Chad L. (27474)
Aircraft: MOONEY M-20 201 202 205 220 ATS MSE
(M20P)
More flights by this aircraft type
Origin: KLAX Los Angeles Intl
United States
Destination: KSAN San Diego Intl-Lindbergh
United States
More flights between these airports :: More routes between these airports
Route: +
File this flight plan on PilotEdge
Remarks:
Altitude:
(Current/Filed)
0ft
Speed:
(Current/Filed)
0kts
Departed: 06-Feb-20 01:17 PM
Arrived: 06-Feb-20 02:09 PM
Distance/Time
Traveled:
95nm/0:52
Distance/Time
To Go:
Arrived

Flight Plot

Page will automatically refresh every two minutes.


Map Options




Map Legend


Flown Route
Filed Route
Departure Airport
Arrival Airport
Navaid (VOR, NDB)
Fix

Horizontal Profiles

Position Reports

Time Latitude Longitude Heading Altitude Ground
Speed
06-Feb-20 12:56 33.934113 -118.395101 202 106ft 0kts
06-Feb-20 12:57 33.934113 -118.395101 202 106ft 0kts
06-Feb-20 12:58 33.934113 -118.395101 202 106ft 0kts
06-Feb-20 12:59 33.934113 -118.395101 202 106ft 0kts
06-Feb-20 13:00 33.934113 -118.395101 202 106ft 0kts
06-Feb-20 13:01 33.934113 -118.395101 202 106ft 0kts
06-Feb-20 13:02 33.934113 -118.395101 202 106ft 0kts
06-Feb-20 13:03 33.934113 -118.395101 202 106ft 0kts
06-Feb-20 13:04 33.934113 -118.395101 202 106ft 0kts
06-Feb-20 13:05 33.934113 -118.395101 202 106ft 0kts
06-Feb-20 13:06 33.934113 -118.395101 202 106ft 0kts
06-Feb-20 13:07 33.934113 -118.395101 202 106ft 0kts
06-Feb-20 13:08 33.934113 -118.395101 202 106ft 0kts
06-Feb-20 13:09 33.934113 -118.395101 202 106ft 0kts
06-Feb-20 13:10 33.934113 -118.395101 202 106ft 0kts
06-Feb-20 13:11 33.933893 -118.394881 96 105ft 0kts
06-Feb-20 13:12 33.934361 -118.393920 21 104ft 10kts
06-Feb-20 13:13 33.935500 -118.388949 82 102ft 27kts
06-Feb-20 13:14 33.936461 -118.382847 25 98ft 0kts
06-Feb-20 13:15 33.936504 -118.382829 16 98ft 3kts
06-Feb-20 13:16 33.936553 -118.393114 265 375ft 78kts
06-Feb-20 13:17 33.934200 -118.421603 263 1479ft 87kts
06-Feb-20 13:18 33.931613 -118.470758 266 3157ft 130kts
06-Feb-20 13:19 33.929596 -118.516025 266 4673ft 127kts
06-Feb-20 13:20 33.926781 -118.568863 267 4394ft 166kts
06-Feb-20 13:21 33.923563 -118.621836 257 3674ft 153kts
06-Feb-20 13:22 33.900396 -118.624008 140 4424ft 88kts
06-Feb-20 13:23 33.881398 -118.605884 141 5781ft 89kts
06-Feb-20 13:24 33.861070 -118.586672 141 6953ft 105kts
06-Feb-20 13:25 33.833142 -118.560442 141 7502ft 160kts
06-Feb-20 13:26 33.794198 -118.524003 141 7499ft 183kts
06-Feb-20 13:27 33.753694 -118.486002 141 7498ft 185kts
06-Feb-20 13:28 33.713068 -118.447834 141 7495ft 185kts
06-Feb-20 13:29 33.676947 -118.402936 132 7495ft 189kts
06-Feb-20 13:30 33.641340 -118.356289 132 7531ft 189kts
06-Feb-20 13:31 33.605330 -118.309271 132 7536ft 193kts
06-Feb-20 13:32 33.568732 -118.261539 132 7530ft 195kts
06-Feb-20 13:33 33.531943 -118.213630 132 7526ft 194kts
06-Feb-20 13:34 33.495340 -118.166024 132 7524ft 194kts
06-Feb-20 13:35 33.459514 -118.117406 129 7524ft 194kts
06-Feb-20 13:36 33.422528 -118.071008 127 7525ft 194kts
06-Feb-20 13:37 33.389266 -118.020138 127 7523ft 194kts
06-Feb-20 13:38 33.355625 -117.969615 128 7524ft 194kts
06-Feb-20 13:39 33.321786 -117.919028 128 7527ft 194kts
06-Feb-20 13:40 33.288091 -117.868711 128 7532ft 194kts
06-Feb-20 13:41 33.264604 -117.811805 104 7536ft 194kts
06-Feb-20 13:42 33.250843 -117.749368 104 7536ft 194kts
06-Feb-20 13:43 33.237091 -117.687124 104 7536ft 194kts
06-Feb-20 13:44 33.223284 -117.624782 104 7536ft 189kts
06-Feb-20 13:45 33.210503 -117.567253 104 7516ft 172kts
06-Feb-20 13:46 33.197867 -117.510488 104 6911ft 185kts
06-Feb-20 13:47 33.185022 -117.453044 104 5542ft 173kts
06-Feb-20 13:48 33.153464 -117.415647 149 5506ft 179kts
06-Feb-20 13:49 33.109938 -117.384201 148 5502ft 181kts
06-Feb-20 13:50 33.068282 -117.354070 148 5500ft 171kts
06-Feb-20 13:51 33.028242 -117.325154 149 5499ft 169kts
06-Feb-20 13:52 32.989278 -117.297034 149 5061ft 139kts
06-Feb-20 13:53 32.964961 -117.275555 77 3577ft 105kts
06-Feb-20 13:54 32.988874 -117.253387 31 3499ft 110kts
06-Feb-20 13:55 33.015160 -117.234364 19 3496ft 110kts
06-Feb-20 13:56 33.020788 -117.267221 264 3501ft 124kts
06-Feb-20 13:57 32.997387 -117.286196 162 3503ft 150kts
06-Feb-20 13:58 32.950718 -117.273054 170 3500ft 183kts
06-Feb-20 13:59 32.900127 -117.262932 171 3504ft 181kts
06-Feb-20 14:00 32.860259 -117.255389 172 3505ft 121kts
06-Feb-20 14:01 32.834770 -117.250673 180 3463ft 76kts
06-Feb-20 14:02 32.811936 -117.242878 156 3157ft 119kts
06-Feb-20 14:03 32.788553 -117.226812 141 3513ft 94kts
06-Feb-20 14:04 32.766786 -117.209166 154 3170ft 103kts
06-Feb-20 14:05 32.745802 -117.189484 116 1684ft 79kts
06-Feb-20 14:06 32.735165 -117.166127 122 888ft 76kts
06-Feb-20 14:07 32.728608 -117.164820 273 473ft 62kts
06-Feb-20 14:08 32.732481 -117.184136 281 16ft 35kts
06-Feb-20 14:09 32.732529 -117.188489 212 16ft 0kts
06-Feb-20 14:11 32.732420 -117.190466 211 17ft 16kts
06-Feb-20 14:12 32.730625 -117.190945 113 16ft 0kts

Navigation Log

Ident Type
Flight plan parsing failed, navigation log unavailable